createdAt,value
2022-08-02T00:00:16.620Z,101603.47
2022-08-02T00:02:45.024Z,101603.47
2022-08-02T00:05:17.216Z,101607.38
2022-08-02T00:07:45.050Z,101612.44
2022-08-02T00:10:13.789Z,101604.19
2022-08-02T00:12:41.627Z,101602.59
2022-08-02T00:15:16.347Z,101603.72
2022-08-02T00:17:45.569Z,101597.78
2022-08-02T00:20:16.820Z,101596.19
2022-08-02T00:22:45.095Z,101598.50
2022-08-02T00:25:13.026Z,101601.25
2022-08-02T00:27:40.944Z,101587.03
2022-08-02T00:30:09.905Z,101592.47
2022-08-02T00:32:37.723Z,101585.72
2022-08-02T00:35:06.393Z,101591.91
2022-08-02T00:37:40.098Z,101589.44
2022-08-02T00:40:09.195Z,101581.44
2022-08-02T00:42:37.164Z,101590.72
2022-08-02T00:45:05.573Z,101592.25
2022-08-02T00:47:33.380Z,101595.69
2022-08-02T00:50:01.626Z,101582.66
2022-08-02T00:52:29.510Z,101587.72
2022-08-02T00:54:58.717Z,101593.13
2022-08-02T00:57:26.573Z,101594.63
2022-08-02T00:59:54.375Z,101598.88
2022-08-02T01:02:22.483Z,101605.88
2022-08-02T01:04:50.377Z,101598.78
2022-08-02T01:07:18.735Z,101596.41
2022-08-02T01:09:49.320Z,101592.75
2022-08-02T01:12:18.591Z,101589.06
2022-08-02T01:14:50.057Z,101585.09
2022-08-02T01:17:24.090Z,101580.31
2022-08-02T01:20:01.642Z,101581.78
2022-08-02T01:23:03.565Z,101574.59
2022-08-02T01:25:54.763Z,101579.19
2022-08-02T01:28:37.385Z,101587.00
2022-08-02T01:31:17.947Z,101587.00
2022-08-02T01:33:52.166Z,101581.88
2022-08-02T01:36:23.292Z,101570.06
2022-08-02T01:38:54.011Z,101566.97
2022-08-02T01:41:25.153Z,101559.50
2022-08-02T01:43:58.940Z,101557.56
2022-08-02T01:46:29.041Z,101557.19
2022-08-02T01:48:59.209Z,101563.50
2022-08-02T01:51:43.171Z,101563.50
2022-08-02T01:54:16.605Z,101559.94
2022-08-02T01:56:46.621Z,101561.91
2022-08-02T01:59:19.832Z,101560.31
2022-08-02T02:01:50.187Z,101558.34
2022-08-02T02:04:18.774Z,101558.72
2022-08-02T02:06:48.700Z,101552.41
2022-08-02T02:09:17.271Z,101551.94
2022-08-02T02:12:09.478Z,101560.19
2022-08-02T02:14:38.431Z,101557.00
2022-08-02T02:17:08.189Z,101563.22
2022-08-02T02:19:59.208Z,101557.97
2022-08-02T02:22:27.377Z,101553.50
2022-08-02T02:24:55.548Z,101550.66
2022-08-02T02:27:24.952Z,101561.53
2022-08-02T02:29:55.890Z,101557.91
2022-08-02T02:32:26.482Z,101550.72
2022-08-02T02:34:56.605Z,101556.91
2022-08-02T02:37:27.689Z,101552.06
2022-08-02T02:39:58.164Z,101545.69
2022-08-02T02:42:31.306Z,101543.16
2022-08-02T02:45:01.206Z,101534.47
2022-08-02T02:47:40.348Z,101525.31
2022-08-02T02:50:10.850Z,101521.69
2022-08-02T02:52:40.873Z,101523.16
2022-08-02T02:55:11.170Z,101512.41
2022-08-02T02:57:40.038Z,101518.63
2022-08-02T03:00:12.807Z,101520.13
2022-08-02T03:02:42.461Z,101515.31
2022-08-02T03:05:12.003Z,101514.84
2022-08-02T03:07:40.636Z,101521.06
2022-08-02T03:10:09.939Z,101523.31
2022-08-02T03:12:38.467Z,101521.28
2022-08-02T03:15:11.421Z,101514.56
2022-08-02T03:17:43.601Z,101517.63
2022-08-02T03:20:14.191Z,101514.44
2022-08-02T03:22:42.876Z,101520.63
2022-08-02T03:25:11.418Z,101517.41
2022-08-02T03:27:39.500Z,101519.69
2022-08-02T03:30:12.758Z,101514.22
2022-08-02T03:32:42.411Z,101504.38
2022-08-02T03:35:13.347Z,101505.19
2022-08-02T03:37:42.045Z,101499.34
2022-08-02T03:40:13.672Z,101498.19
2022-08-02T03:42:42.399Z,101506.41
2022-08-02T03:45:14.805Z,101507.22
2022-08-02T03:47:44.223Z,101505.28
2022-08-02T03:50:13.729Z,101508.00
2022-08-02T03:52:43.471Z,101506.41
2022-08-02T03:55:12.565Z,101516.59
2022-08-02T03:57:41.706Z,101513.06
2022-08-02T04:00:14.125Z,101515.81
2022-08-02T04:02:42.159Z,101504.81
2022-08-02T04:05:10.441Z,101504.38
2022-08-02T04:08:34.490Z,101508.28
2022-08-02T04:10:26.901Z,101510.22
2022-08-02T04:12:55.659Z,101501.19
2022-08-02T04:15:25.765Z,101507.00
2022-08-02T04:17:57.826Z,101515.59
2022-08-02T04:20:29.485Z,101521.00
2022-08-02T04:23:01.511Z,101519.72
2022-08-02T04:25:35.776Z,101519.63
2022-08-02T04:28:17.027Z,101527.06
2022-08-02T04:30:48.501Z,101523.03
2022-08-02T04:33:16.877Z,101519.84
2022-08-02T04:35:45.970Z,101521.00
2022-08-02T04:38:15.757Z,101516.66
2022-08-02T04:40:52.332Z,101518.13
2022-08-02T04:43:20.837Z,101512.63
2022-08-02T04:45:52.543Z,101522.47
2022-08-02T04:48:20.680Z,101524.75
2022-08-02T04:50:48.586Z,101520.41
2022-08-02T04:53:16.552Z,101524.31
2022-08-02T04:55:44.520Z,101535.28
2022-08-02T04:58:37.436Z,101537.22
2022-08-02T05:01:01.974Z,101545.47
2022-08-02T05:03:29.915Z,101540.78
2022-08-02T05:05:57.772Z,101536.88
2022-08-02T05:08:25.639Z,101525.09
2022-08-02T05:10:54.150Z,101522.00
2022-08-02T05:13:22.107Z,101520.53
2022-08-02T05:15:50.603Z,101527.97
2022-08-02T05:18:21.359Z,101528.44
2022-08-02T05:20:49.870Z,101524.53
2022-08-02T05:23:17.710Z,101526.94
2022-08-02T05:25:45.863Z,101524.31
2022-08-02T05:28:13.897Z,101518.13
2022-08-02T05:30:41.853Z,101522.59
2022-08-02T05:33:09.824Z,101525.91
2022-08-02T05:35:42.380Z,101524.50
2022-08-02T05:38:10.515Z,101525.06
2022-08-02T05:40:54.808Z,101520.13
2022-08-02T05:43:23.382Z,101519.91
2022-08-02T05:45:53.542Z,101515.78
2022-08-02T05:48:22.025Z,101522.97
2022-08-02T05:51:04.141Z,101517.59
2022-08-02T05:53:38.151Z,101515.38
2022-08-02T05:56:17.451Z,101513.19
2022-08-02T05:58:54.238Z,101514.88
2022-08-02T06:01:29.751Z,101503.97
2022-08-02T06:04:00.809Z,101498.69
2022-08-02T06:06:33.518Z,101503.63
2022-08-02T06:09:04.174Z,101500.72
2022-08-02T06:11:36.909Z,101493.81
2022-08-02T06:14:06.409Z,101506.63
2022-08-02T06:16:37.620Z,101498.09
2022-08-02T06:19:10.647Z,101501.31
2022-08-02T06:22:32.371Z,101498.28
2022-08-02T06:24:31.744Z,101498.38
2022-08-02T06:27:00.883Z,101500.06
2022-08-02T06:29:29.567Z,101501.03
2022-08-02T06:31:58.057Z,101499.00
2022-08-02T06:34:26.122Z,101502.56
2022-08-02T06:37:07.624Z,101500.63
2022-08-02T06:39:44.684Z,101498.75
2022-08-02T06:42:16.527Z,101501.59
2022-08-02T06:44:57.680Z,101511.91
2022-08-02T06:47:25.933Z,101508.41
2022-08-02T06:49:54.946Z,101510.28
2022-08-02T06:52:30.961Z,101501.50
2022-08-02T06:55:00.852Z,101494.34
2022-08-02T06:57:29.198Z,101492.38
2022-08-02T06:59:57.106Z,101498.09
2022-08-02T07:02:25.412Z,101505.59
2022-08-02T07:04:53.520Z,101492.13
2022-08-02T07:07:21.509Z,101490.81
2022-08-02T07:09:56.984Z,101489.03
2022-08-02T07:12:31.003Z,101487.66
2022-08-02T07:14:59.573Z,101494.38
2022-08-02T07:17:27.734Z,101490.09
2022-08-02T07:19:55.734Z,101495.16
2022-08-02T07:22:24.631Z,101499.31
2022-08-02T07:24:54.978Z,101493.97
2022-08-02T07:27:23.296Z,101497.81
2022-08-02T07:29:51.268Z,101493.59
2022-08-02T07:32:19.897Z,101486.91
2022-08-02T07:34:52.742Z,101498.03
2022-08-02T07:37:35.877Z,101494.94
2022-08-02T07:40:15.279Z,101493.78
2022-08-02T07:42:48.845Z,101485.19
2022-08-02T07:45:16.859Z,101494.00
2022-08-02T07:47:45.928Z,101494.03
2022-08-02T07:50:15.493Z,101486.16
2022-08-02T07:52:44.377Z,101480.63
2022-08-02T07:55:15.140Z,101484.59
2022-08-02T07:57:46.443Z,101473.03
2022-08-02T08:00:17.216Z,101474.16
2022-08-02T08:02:45.679Z,101477.34
2022-08-02T08:05:14.056Z,101472.50
2022-08-02T08:07:42.246Z,101466.44
2022-08-02T08:10:11.212Z,101469.41
2022-08-02T08:12:40.649Z,101462.13
2022-08-02T08:15:09.586Z,101463.22
2022-08-02T08:17:38.390Z,101456.00
2022-08-02T08:20:07.551Z,101454.25
2022-08-02T08:22:35.523Z,101450.19
2022-08-02T08:25:04.102Z,101458.03
2022-08-02T08:27:32.312Z,101449.22
2022-08-02T08:30:01.580Z,101455.38
2022-08-02T08:32:29.567Z,101450.25
2022-08-02T08:34:57.528Z,101447.38
2022-08-02T08:37:25.456Z,101441.97
2022-08-02T08:39:57.154Z,101452.28
2022-08-02T08:42:27.355Z,101456.63
2022-08-02T08:44:56.109Z,101454.88
2022-08-02T08:47:33.800Z,101444.66
2022-08-02T08:50:05.534Z,101461.16
2022-08-02T08:52:37.155Z,101443.34
2022-08-02T08:55:06.834Z,101443.06
2022-08-02T08:57:38.579Z,101435.53
2022-08-02T09:00:07.636Z,101445.19
2022-08-02T09:02:37.770Z,101442.78
2022-08-02T09:05:06.523Z,101443.06
2022-08-02T09:07:34.415Z,101436.50
2022-08-02T09:10:02.345Z,101433.47
2022-08-02T09:12:30.272Z,101429.38
2022-08-02T09:14:58.256Z,101435.47
2022-08-02T09:17:26.168Z,101436.28
2022-08-02T09:20:09.629Z,101433.50
2022-08-02T09:22:37.600Z,101431.78
2022-08-02T09:25:06.266Z,101418.47
2022-08-02T09:27:38.171Z,101432.88
2022-08-02T09:30:15.500Z,101431.91
2022-08-02T09:32:50.053Z,101423.78
2022-08-02T09:36:06.828Z,101436.09
2022-08-02T09:38:25.953Z,101431.06
2022-08-02T09:40:54.274Z,101434.94
2022-08-02T09:43:22.484Z,101431.59
2022-08-02T09:45:50.355Z,101424.81
2022-08-02T09:48:18.270Z,101422.91
2022-08-02T09:50:47.524Z,101422.53
2022-08-02T09:53:15.555Z,101414.47
2022-08-02T09:55:43.954Z,101431.78
2022-08-02T09:58:19.478Z,101416.41
2022-08-02T10:00:55.011Z,101430.06
2022-08-02T10:03:23.048Z,101423.03
2022-08-02T10:06:03.121Z,101424.25
2022-08-02T10:08:33.515Z,101427.06
2022-08-02T10:11:02.598Z,101423.66
2022-08-02T10:13:32.606Z,101429.09
2022-08-02T10:16:00.578Z,101420.94
2022-08-02T10:18:38.768Z,101412.56
2022-08-02T10:21:14.725Z,101419.97
2022-08-02T10:23:45.636Z,101409.00
2022-08-02T10:26:18.790Z,101415.41
2022-08-02T10:28:49.570Z,101408.63
2022-08-02T10:31:24.663Z,101407.94
2022-08-02T10:33:55.303Z,101402.97
2022-08-02T10:36:27.315Z,101397.31
2022-08-02T10:38:58.678Z,101386.19
2022-08-02T10:41:43.663Z,101399.03
2022-08-02T10:44:24.503Z,101393.03
2022-08-02T10:46:53.689Z,101396.94
2022-08-02T10:49:40.012Z,101392.53
2022-08-02T10:52:11.066Z,101386.28
2022-08-02T10:54:41.005Z,101381.94
2022-08-02T10:57:21.347Z,101383.34
2022-08-02T10:59:50.822Z,101377.16
2022-08-02T11:02:45.119Z,101378.41
2022-08-02T11:05:18.107Z,101387.34
2022-08-02T11:07:49.638Z,101394.75
2022-08-02T11:10:38.972Z,101384.88
2022-08-02T11:13:15.135Z,101384.13
2022-08-02T11:15:59.192Z,101378.19
2022-08-02T11:19:00.573Z,101385.91
2022-08-02T11:21:30.280Z,101376.81
2022-08-02T11:24:31.261Z,101380.34
2022-08-02T11:27:00.323Z,101384.31
2022-08-02T11:29:39.994Z,101374.66
2022-08-02T11:32:16.207Z,101389.16
2022-08-02T11:34:45.599Z,101383.31
2022-08-02T11:37:13.621Z,101376.50
2022-08-02T11:39:51.610Z,101391.53
2022-08-02T11:42:19.684Z,101383.91
2022-08-02T11:44:49.303Z,101378.94
2022-08-02T11:47:17.177Z,101378.84
2022-08-02T11:49:45.530Z,101376.50
2022-08-02T11:52:13.743Z,101375.59
2022-08-02T11:54:44.728Z,101372.66
2022-08-02T11:57:19.263Z,101364.78
2022-08-02T11:59:51.537Z,101373.34
2022-08-02T12:02:20.929Z,101373.88
2022-08-02T12:04:58.526Z,101362.75
2022-08-02T12:07:34.746Z,101359.06
2022-08-02T12:10:09.989Z,101359.72
2022-08-02T12:12:50.984Z,101364.03
2022-08-02T12:15:34.259Z,101368.75
2022-08-02T12:18:20.342Z,101362.53
2022-08-02T12:20:48.513Z,101359.53
2022-08-02T12:23:16.748Z,101362.81
2022-08-02T12:25:46.333Z,101348.53
2022-08-02T12:28:17.745Z,101343.03
2022-08-02T12:30:54.600Z,101343.03
2022-08-02T12:33:23.726Z,101357.38
2022-08-02T12:35:52.868Z,101358.47
2022-08-02T12:38:21.212Z,101359.81
2022-08-02T12:40:50.827Z,101359.66
2022-08-02T12:43:21.507Z,101358.00
2022-08-02T12:45:53.439Z,101354.50
2022-08-02T12:48:37.686Z,101368.81
2022-08-02T12:51:20.598Z,101356.25
2022-08-02T12:53:59.862Z,101351.28
2022-08-02T12:56:31.746Z,101342.09
2022-08-02T12:59:00.140Z,101344.75
2022-08-02T13:01:29.913Z,101339.56
2022-08-02T13:04:10.056Z,101347.91
2022-08-02T13:06:44.450Z,101350.28
2022-08-02T13:09:16.052Z,101340.63
2022-08-02T13:11:48.120Z,101336.28
2022-08-02T13:14:16.657Z,101333.31
2022-08-02T13:16:46.391Z,101322.00
2022-08-02T13:19:15.593Z,101326.28
2022-08-02T13:22:11.197Z,101311.31
2022-08-02T13:24:40.076Z,101314.19
2022-08-02T13:27:23.714Z,101316.81
2022-08-02T13:29:51.792Z,101304.91
2022-08-02T13:32:23.798Z,101319.13
2022-08-02T13:34:52.095Z,101318.66
2022-08-02T13:37:20.382Z,101316.53
2022-08-02T13:40:11.853Z,101306.94
2022-08-02T13:42:41.651Z,101311.41
2022-08-02T13:45:12.044Z,101316.50
2022-08-02T13:47:57.430Z,101316.47
2022-08-02T13:50:31.206Z,101315.22
2022-08-02T13:53:01.635Z,101302.00
2022-08-02T13:55:29.596Z,101305.78
2022-08-02T13:57:59.278Z,101307.63
2022-08-02T14:00:35.828Z,101297.84
2022-08-02T14:03:07.826Z,101294.47
2022-08-02T14:05:48.182Z,101295.00
2022-08-02T14:08:17.959Z,101290.59
2022-08-02T14:10:46.962Z,101294.72
2022-08-02T14:13:16.876Z,101293.13
2022-08-02T14:15:45.412Z,101291.56
2022-08-02T14:18:14.906Z,101286.56
2022-08-02T14:20:43.080Z,101293.75
2022-08-02T14:23:10.936Z,101277.03
2022-08-02T14:25:39.090Z,101278.09
2022-08-02T14:28:07.136Z,101274.84
2022-08-02T14:30:37.015Z,101274.66
2022-08-02T14:33:05.151Z,101276.25
2022-08-02T14:35:33.369Z,101276.56
2022-08-02T14:38:01.355Z,101271.06
2022-08-02T14:40:31.649Z,101265.59
2022-08-02T14:43:00.907Z,101257.59
2022-08-02T14:45:40.961Z,101259.47
2022-08-02T14:48:12.421Z,101258.84
2022-08-02T14:50:40.721Z,101259.31
2022-08-02T14:53:12.466Z,101254.00
2022-08-02T14:55:43.938Z,101257.13
2022-08-02T14:58:12.285Z,101247.09
2022-08-02T15:00:43.743Z,101251.28
2022-08-02T15:03:15.645Z,101246.78
2022-08-02T15:05:43.631Z,101243.34
2022-08-02T15:08:11.716Z,101255.88
2022-08-02T15:10:45.461Z,101245.22
2022-08-02T15:13:13.507Z,101244.88
2022-08-02T15:15:43.704Z,101245.19
2022-08-02T15:18:14.408Z,101238.13
2022-08-02T15:20:47.793Z,101254.22
2022-08-02T15:23:37.334Z,101236.06
2022-08-02T15:26:07.412Z,101231.41
2022-08-02T15:28:35.967Z,101238.13
2022-08-02T15:31:03.932Z,101246.69
2022-08-02T15:33:33.264Z,101236.06
2022-08-02T15:36:01.246Z,101238.81
2022-08-02T15:38:29.100Z,101235.06
2022-08-02T15:40:58.985Z,101241.63
2022-08-02T15:43:27.181Z,101234.75
2022-08-02T15:45:55.259Z,101238.81
2022-08-02T15:48:23.191Z,101243.66
2022-08-02T15:50:52.675Z,101236.53
2022-08-02T15:53:22.883Z,101239.03
2022-08-02T15:55:52.656Z,101230.28
2022-08-02T15:58:34.592Z,101226.50
2022-08-02T16:01:12.090Z,101216.78
2022-08-02T16:03:40.295Z,101222.13
2022-08-02T16:06:09.658Z,101226.50
2022-08-02T16:08:51.688Z,101227.59
2022-08-02T16:11:22.689Z,101216.81
2022-08-02T16:13:56.787Z,101219.81
2022-08-02T16:16:26.816Z,101222.44
2022-08-02T16:18:55.571Z,101213.03
2022-08-02T16:21:25.065Z,101221.94
2022-08-02T16:24:01.759Z,101213.97
2022-08-02T16:26:31.887Z,101214.28
2022-08-02T16:29:00.522Z,101223.91
2022-08-02T16:31:28.625Z,101218.44
2022-08-02T16:33:57.434Z,101220.66
2022-08-02T16:36:28.077Z,101208.94
2022-08-02T16:38:56.765Z,101206.13
2022-08-02T16:41:50.716Z,101206.13
2022-08-02T16:44:15.742Z,101199.84
2022-08-02T16:46:45.443Z,101196.41
2022-08-02T16:50:04.956Z,101189.53
2022-08-02T16:52:06.104Z,101185.47
2022-08-02T16:54:38.266Z,101180.88
2022-08-02T16:57:07.636Z,101180.09
2022-08-02T16:59:42.139Z,101173.44
2022-08-02T17:02:18.094Z,101171.50
2022-08-02T17:04:46.568Z,101165.88
2022-08-02T17:08:06.377Z,101165.25
2022-08-02T17:10:06.454Z,101181.13
2022-08-02T17:12:37.260Z,101176.09
2022-08-02T17:16:07.641Z,101177.28
2022-08-02T17:17:54.372Z,101175.75
2022-08-02T17:20:23.518Z,101180.25
2022-08-02T17:22:53.829Z,101174.63
2022-08-02T17:25:22.268Z,101174.56
2022-08-02T17:27:56.014Z,101180.75
2022-08-02T17:30:26.542Z,101179.34
2022-08-02T17:32:57.663Z,101186.88
2022-08-02T17:35:51.851Z,101179.94
2022-08-02T17:38:26.634Z,101171.28
2022-08-02T17:40:56.126Z,101176.72
2022-08-02T17:43:32.744Z,101180.00
2022-08-02T17:46:02.496Z,101173.94
2022-08-02T17:48:55.056Z,101174.72
2022-08-02T17:52:16.133Z,101171.38
2022-08-02T17:54:13.814Z,101174.50
2022-08-02T17:56:42.537Z,101175.97
2022-08-02T17:59:20.917Z,101170.59
2022-08-02T18:01:52.846Z,101179.44
2022-08-02T18:04:27.575Z,101173.94
2022-08-02T18:06:57.849Z,101176.97
2022-08-02T18:09:28.136Z,101175.94
2022-08-02T18:11:56.656Z,101174.59
2022-08-02T18:14:26.425Z,101167.94
2022-08-02T18:16:54.533Z,101174.44
2022-08-02T18:19:22.586Z,101179.38
2022-08-02T18:21:50.712Z,101181.50
2022-08-02T18:24:19.431Z,101176.78
2022-08-02T18:26:53.488Z,101176.78
2022-08-02T18:29:21.411Z,101176.97
2022-08-02T18:32:00.616Z,101173.59
2022-08-02T18:34:31.506Z,101185.47
2022-08-02T18:36:59.537Z,101180.72
2022-08-02T18:39:27.742Z,101182.53
2022-08-02T18:42:02.510Z,101185.13
2022-08-02T18:44:31.141Z,101182.50
2022-08-02T18:46:59.197Z,101185.50
2022-08-02T18:52:31.206Z,101178.13
2022-08-02T18:54:59.597Z,101181.53
2022-08-02T18:58:17.279Z,101190.47
2022-08-02T19:00:26.452Z,101190.53
2022-08-02T19:02:55.043Z,101195.41
2022-08-02T19:05:24.339Z,101190.69
2022-08-02T19:08:12.372Z,101189.22
2022-08-02T19:10:49.083Z,101196.88
2022-08-02T19:13:19.545Z,101194.97
2022-08-02T19:15:48.190Z,101193.47
2022-08-02T19:18:16.165Z,101199.50
2022-08-02T19:20:48.374Z,101200.03
2022-08-02T19:23:17.139Z,101190.94
2022-08-02T19:25:54.523Z,101200.13
2022-08-02T19:28:26.793Z,101200.63
2022-08-02T19:30:55.404Z,101192.41
2022-08-02T19:33:54.310Z,101194.91
2022-08-02T19:36:11.957Z,101201.06
2022-08-02T19:38:43.968Z,101201.19
2022-08-02T19:41:13.605Z,101203.25
2022-08-02T19:44:24.131Z,101201.41
2022-08-02T19:46:31.280Z,101208.44
2022-08-02T19:49:20.124Z,101207.00
2022-08-02T19:51:55.437Z,101214.47
2022-08-02T19:54:54.185Z,101207.44
2022-08-02T19:57:17.008Z,101218.34
2022-08-02T19:59:49.662Z,101210.13
2022-08-02T20:02:18.626Z,101206.31
2022-08-02T20:04:50.301Z,101220.06
2022-08-02T20:07:54.491Z,101219.81
2022-08-02T20:10:10.827Z,101209.53
2022-08-02T20:12:39.785Z,101218.78
2022-08-02T20:15:14.698Z,101214.03
2022-08-02T20:17:47.458Z,101222.13
2022-08-02T20:20:16.986Z,101226.94
2022-08-02T20:23:03.879Z,101221.44
2022-08-02T20:25:53.978Z,101224.69
2022-08-02T20:28:23.382Z,101232.31
2022-08-02T20:30:53.158Z,101233.53
2022-08-02T20:33:24.480Z,101225.63
2022-08-02T20:35:53.141Z,101230.50
2022-08-02T20:38:24.829Z,101232.19
2022-08-02T20:40:55.925Z,101229.03
2022-08-02T20:43:31.447Z,101231.50
2022-08-02T20:46:07.416Z,101226.47
2022-08-02T20:48:36.516Z,101223.78
2022-08-02T20:51:09.677Z,101225.44
2022-08-02T20:53:56.026Z,101234.34
2022-08-02T20:56:24.756Z,101222.91
2022-08-02T20:58:53.930Z,101229.81
2022-08-02T21:01:36.868Z,101225.53
2022-08-02T21:04:05.707Z,101221.22
2022-08-02T21:06:34.390Z,101226.09
2022-08-02T21:09:06.935Z,101225.38
2022-08-02T21:11:35.976Z,101231.41
2022-08-02T21:14:08.769Z,101235.06
2022-08-02T21:16:38.938Z,101223.94
2022-08-02T21:19:08.074Z,101229.16
2022-08-02T21:21:38.331Z,101223.22
2022-08-02T21:24:06.818Z,101223.59
2022-08-02T21:26:39.730Z,101230.44
2022-08-02T21:29:09.715Z,101228.47
2022-08-02T21:31:44.113Z,101228.09
2022-08-02T21:34:22.531Z,101224.53
2022-08-02T21:36:55.922Z,101217.44
2022-08-02T21:39:24.092Z,101227.38
2022-08-02T21:41:53.028Z,101231.44
2022-08-02T21:44:22.798Z,101230.66
2022-08-02T21:46:54.383Z,101225.94
2022-08-02T21:49:40.566Z,101231.22
2022-08-02T21:52:16.517Z,101235.59
2022-08-02T21:54:45.470Z,101224.53
2022-08-02T21:57:16.161Z,101229.34
2022-08-02T21:59:45.606Z,101225.44
2022-08-02T22:02:16.475Z,101232.25
2022-08-02T22:04:47.989Z,101227.94
2022-08-02T22:07:17.796Z,101231.13
2022-08-02T22:09:52.143Z,101243.88
2022-08-02T22:12:26.162Z,101239.16
2022-08-02T22:14:56.542Z,101240.34
2022-08-02T22:17:51.063Z,101242.38
2022-08-02T22:20:20.216Z,101237.59
2022-08-02T22:22:50.712Z,101242.78
2022-08-02T22:25:26.431Z,101243.97
2022-08-02T22:28:37.281Z,101243.97
2022-08-02T22:30:56.657Z,101239.25
2022-08-02T22:34:00.709Z,101244.78
2022-08-02T22:36:30.584Z,101241.22
2022-08-02T22:38:58.978Z,101233.72
2022-08-02T22:42:00.880Z,101241.66
2022-08-02T22:44:18.476Z,101244.47
2022-08-02T22:46:46.997Z,101241.69
2022-08-02T22:49:38.579Z,101244.06
2022-08-02T22:52:07.948Z,101238.16
2022-08-02T22:54:35.858Z,101241.78
2022-08-02T22:57:03.887Z,101249.72
2022-08-02T22:59:00.084Z,101187.81
2022-08-02T22:59:35.992Z,101239.44
2022-08-02T23:02:08.272Z,101234.69
2022-08-02T23:04:37.726Z,101235.88
2022-08-02T23:07:05.803Z,101233.50
2022-08-02T23:09:33.812Z,101234.69
2022-08-02T23:12:02.108Z,101230.75
2022-08-02T23:14:30.262Z,101245.84
2022-08-02T23:17:15.787Z,101238.31
2022-08-02T23:19:55.474Z,101246.66
2022-08-02T23:22:30.127Z,101237.13
2022-08-02T23:25:01.471Z,101235.94
2022-08-02T23:27:30.092Z,101237.91
2022-08-02T23:29:58.011Z,101239.53
2022-08-02T23:32:26.284Z,101245.06
2022-08-02T23:34:55.761Z,101239.53
2022-08-02T23:37:23.968Z,101236.75
2022-08-02T23:39:52.401Z,101244.28
2022-08-02T23:42:20.463Z,101242.69
2022-08-02T23:44:48.384Z,101239.53
2022-08-02T23:47:16.961Z,101240.69
2022-08-02T23:49:45.285Z,101241.09
2022-08-02T23:52:14.940Z,101238.75
2022-08-02T23:54:43.168Z,101238.34
2022-08-02T23:57:19.612Z,101240.31
2022-08-02T23:59:49.108Z,101235.94
